Time;durP1;ratioP1;P1;durP2;ratioP2;P2;SDS_P1;SDS_P2;PMS_P1;PMS_P2;Temp;Humidity;BMP_temperature;BMP_pressure;BME280_temperature;BME280_humidity;BME280_pressure;Samples;Min_cycle;Max_cycle;Signal;HPM_P1;HPM_P2
2022/12/19 00:00:43;;;;;;;56.20;30.93;;;-0.30;99.90;;;;;;10426879;28;20216;-71
2022/12/19 00:05:44;;;;;;;51.37;27.83;;;-0.30;99.90;;;;;;10424729;28;20255;-70
2022/12/19 00:10:56;;;;;;;48.10;26.63;;;-0.20;99.90;;;;;;10428814;28;20277;-69
2022/12/19 00:16:22;;;;;;;46.30;26.13;;;-0.10;99.90;;;;;;10430298;28;20221;-69
2022/12/19 00:21:25;;;;;;;49.30;26.73;;;-0.10;99.90;;;;;;10441167;28;20232;-69
2022/12/19 00:26:28;;;;;;;48.27;27.10;;;-0.10;99.90;;;;;;10431298;28;20730;-69
2022/12/19 00:31:32;;;;;;;47.67;25.97;;;-0.10;99.90;;;;;;10433031;28;20232;-70
2022/12/19 00:36:33;;;;;;;50.07;27.30;;;-0.10;99.90;;;;;;10430658;28;20243;-69
2022/12/19 00:41:35;;;;;;;48.03;26.57;;;-0.10;99.90;;;;;;10431742;28;20300;-69
2022/12/19 00:46:36;;;;;;;46.03;24.90;;;-0.10;99.90;;;;;;10433251;28;20224;-68
2022/12/19 00:51:37;;;;;;;44.57;25.70;;;-0.10;99.90;;;;;;10429960;28;20236;-71
2022/12/19 00:56:37;;;;;;;43.50;25.07;;;-0.10;99.90;;;;;;10426534;28;20236;-70
2022/12/19 01:01:40;;;;;;;46.07;25.60;;;0.00;99.90;;;;;;10432645;28;20595;-70
2022/12/19 01:06:40;;;;;;;40.83;25.03;;;0.10;99.90;;;;;;10429011;28;20786;-70
2022/12/19 01:17:00;;;;;;;46.50;26.03;;;-0.10;99.90;;;;;;10427637;28;20228;-69
2022/12/19 01:22:00;;;;;;;45.50;25.20;;;-0.10;99.90;;;;;;10433199;28;20696;-70
2022/12/19 01:27:01;;;;;;;43.63;25.17;;;-0.10;99.90;;;;;;10433216;28;20216;-70
2022/12/19 01:32:02;;;;;;;44.07;25.93;;;-0.10;99.90;;;;;;10426677;28;20220;-70
2022/12/19 01:37:02;;;;;;;42.37;24.77;;;0.00;99.90;;;;;;10433764;28;20223;-70
2022/12/19 01:42:15;;;;;;;44.30;25.20;;;0.00;99.90;;;;;;10434638;28;20249;-70
2022/12/19 01:47:15;;;;;;;42.40;25.07;;;0.10;99.90;;;;;;10426839;28;20236;-68
2022/12/19 01:52:16;;;;;;;44.67;25.30;;;0.00;99.90;;;;;;10433592;28;20578;-70
2022/12/19 01:57:18;;;;;;;39.57;24.00;;;0.10;99.90;;;;;;10432179;28;20231;-70
2022/12/19 02:02:25;;;;;;;37.03;22.33;;;0.10;99.90;;;;;;10434577;28;20316;-69
2022/12/19 02:07:27;;;;;;;39.97;22.20;;;0.30;99.90;;;;;;10428966;28;20224;-70
2022/12/19 02:12:32;;;;;;;35.73;21.33;;;0.30;99.90;;;;;;10427728;28;20309;-70
2022/12/19 02:18:12;;;;;;;37.63;21.87;;;0.40;99.90;;;;;;10423913;28;20702;-70
2022/12/19 02:23:45;;;;;;;39.63;22.70;;;0.50;99.90;;;;;;10425761;28;20231;-69
2022/12/19 02:29:20;;;;;;;35.07;21.03;;;0.60;99.90;;;;;;10424273;28;20224;-69
2022/12/19 02:34:30;;;;;;;37.73;22.40;;;0.60;99.90;;;;;;10431008;28;20568;-68
2022/12/19 02:40:05;;;;;;;38.03;21.37;;;0.50;99.90;;;;;;10436491;28;20600;-68
2022/12/19 02:45:09;;;;;;;38.67;21.70;;;0.30;99.90;;;;;;10407550;28;20240;-69
2022/12/19 02:50:10;;;;;;;41.27;22.60;;;0.30;99.90;;;;;;10434652;28;20204;-69
2022/12/19 02:55:19;;;;;;;37.27;21.43;;;0.30;99.90;;;;;;10430357;28;20911;-69
2022/12/19 03:00:22;;;;;;;41.63;22.37;;;0.40;99.90;;;;;;10425551;28;20181;-70
2022/12/19 03:05:46;;;;;;;37.20;21.70;;;0.30;99.90;;;;;;10428355;28;20219;-69
2022/12/19 03:11:06;;;;;;;40.30;22.27;;;0.30;99.90;;;;;;10413728;28;20219;-70
2022/12/19 03:16:09;;;;;;;37.70;20.50;;;0.30;99.90;;;;;;10422365;28;20266;-69
2022/12/19 03:21:16;;;;;;;38.20;20.93;;;0.40;99.90;;;;;;10433874;28;20246;-69
2022/12/19 03:26:19;;;;;;;37.00;21.53;;;0.40;99.90;;;;;;10430058;28;20573;-70
2022/12/19 03:31:23;;;;;;;36.07;21.50;;;0.40;99.90;;;;;;10424339;28;20232;-70
2022/12/19 03:36:29;;;;;;;35.47;20.87;;;0.40;99.90;;;;;;10428516;28;20240;-69
2022/12/19 03:46:57;;;;;;;36.77;20.47;;;0.60;99.90;;;;;;10437928;28;20267;-69
2022/12/19 03:52:20;;;;;;;33.27;19.40;;;0.70;99.90;;;;;;10431169;28;20224;-70
2022/12/19 03:57:29;;;;;;;35.13;20.80;;;0.90;99.90;;;;;;10430599;28;20242;-70
2022/12/19 04:02:36;;;;;;;31.90;19.17;;;1.00;99.90;;;;;;10439736;28;20223;-69
2022/12/19 04:07:38;;;;;;;37.70;22.90;;;1.10;99.90;;;;;;10432411;28;20228;-70
2022/12/19 04:12:46;;;;;;;37.87;21.77;;;1.20;99.90;;;;;;10438290;28;20248;-69
2022/12/19 04:17:53;;;;;;;39.33;22.63;;;1.20;99.90;;;;;;10435738;28;20720;-70
2022/12/19 04:23:06;;;;;;;38.40;22.43;;;1.20;99.90;;;;;;10435050;28;20299;-69
2022/12/19 04:28:15;;;;;;;42.23;23.27;;;1.20;99.90;;;;;;10436829;28;20233;-70
2022/12/19 04:33:15;;;;;;;38.27;23.17;;;1.20;99.90;;;;;;10438517;28;20251;-69
2022/12/19 04:38:16;;;;;;;39.00;23.33;;;1.10;99.90;;;;;;10435604;28;20659;-70
2022/12/19 04:43:17;;;;;;;36.83;22.50;;;1.10;99.90;;;;;;10430984;28;20327;-69
2022/12/19 04:48:17;;;;;;;43.70;22.73;;;1.10;99.90;;;;;;10435525;28;20231;-69
2022/12/19 04:53:18;;;;;;;41.83;24.10;;;1.10;99.90;;;;;;10438953;28;20216;-70
2022/12/19 04:58:18;;;;;;;41.23;23.50;;;1.10;99.90;;;;;;10428269;28;20228;-70
2022/12/19 05:03:19;;;;;;;39.17;23.40;;;1.10;99.90;;;;;;10434316;28;20223;-69
2022/12/19 05:08:19;;;;;;;37.40;22.60;;;1.10;99.90;;;;;;10430465;28;20250;-69
2022/12/19 05:13:20;;;;;;;39.27;22.93;;;1.20;99.90;;;;;;10440706;28;20216;-69
2022/12/19 05:18:20;;;;;;;45.27;24.57;;;1.20;99.90;;;;;;10428614;28;20239;-71
2022/12/19 05:23:21;;;;;;;45.30;25.30;;;1.20;99.90;;;;;;10435877;28;20330;-68
2022/12/19 05:28:22;;;;;;;40.60;23.70;;;1.30;99.90;;;;;;10432897;28;20252;-69
2022/12/19 05:33:23;;;;;;;39.77;23.20;;;1.30;99.90;;;;;;10426337;28;20228;-71
2022/12/19 05:38:26;;;;;;;39.27;22.80;;;1.30;99.90;;;;;;10429684;28;20267;-69
2022/12/19 05:43:27;;;;;;;41.53;23.40;;;1.30;99.90;;;;;;10442620;28;20285;-69
2022/12/19 05:48:27;;;;;;;39.80;23.40;;;1.30;99.90;;;;;;10431307;28;20252;-69
2022/12/19 05:53:28;;;;;;;38.43;22.60;;;1.20;99.90;;;;;;10429612;28;20215;-69
2022/12/19 05:58:28;;;;;;;40.20;23.13;;;1.20;99.90;;;;;;10429247;28;20244;-69
2022/12/19 06:03:29;;;;;;;34.47;23.00;;;1.30;99.90;;;;;;10436709;28;20323;-69
2022/12/19 06:08:30;;;;;;;38.10;22.90;;;1.40;99.90;;;;;;10428224;28;20910;-69
2022/12/19 06:13:31;;;;;;;35.37;22.07;;;1.40;99.90;;;;;;10428353;28;20227;-69
2022/12/19 06:18:33;;;;;;;40.97;23.00;;;1.50;99.90;;;;;;10426223;28;20220;-69
2022/12/19 06:23:36;;;;;;;37.03;22.43;;;1.50;99.90;;;;;;10429770;28;20658;-70
2022/12/19 06:28:37;;;;;;;39.13;21.80;;;1.50;99.90;;;;;;10439457;28;20298;-69
2022/12/19 06:33:37;;;;;;;39.03;22.73;;;1.50;99.90;;;;;;10423764;28;20341;-70
2022/12/19 06:38:38;;;;;;;47.40;25.63;;;1.50;99.90;;;;;;10428772;28;20231;-70
2022/12/19 06:43:39;;;;;;;41.10;23.73;;;1.60;99.90;;;;;;10428765;28;20766;-69
2022/12/19 06:48:39;;;;;;;34.70;21.63;;;1.70;99.90;;;;;;10426256;28;20242;-69
2022/12/19 06:53:40;;;;;;;36.13;22.10;;;1.80;99.90;;;;;;10439317;28;20380;-71
2022/12/19 06:58:40;;;;;;;37.47;22.13;;;1.90;99.90;;;;;;10427405;28;20643;-70
2022/12/19 07:03:41;;;;;;;37.20;22.43;;;1.90;99.90;;;;;;10432173;28;20221;-70
2022/12/19 07:08:42;;;;;;;37.97;21.97;;;1.90;99.90;;;;;;10428617;28;20234;-70
2022/12/19 07:13:42;;;;;;;40.73;24.40;;;2.00;99.90;;;;;;10426206;28;20319;-70
2022/12/19 07:18:43;;;;;;;40.33;23.83;;;1.90;99.90;;;;;;10433800;28;20574;-70
2022/12/19 07:23:44;;;;;;;39.07;22.67;;;1.90;99.90;;;;;;10437617;28;20302;-71
2022/12/19 07:28:45;;;;;;;41.37;24.43;;;1.90;99.90;;;;;;10434323;28;20228;-69
2022/12/19 07:33:45;;;;;;;35.73;22.33;;;2.00;99.90;;;;;;10435831;28;20223;-68
2022/12/19 07:38:46;;;;;;;38.43;23.50;;;2.00;99.90;;;;;;10431355;28;20236;-70
2022/12/19 07:43:47;;;;;;;39.70;22.23;;;2.10;99.90;;;;;;10436406;28;20220;-70
2022/12/19 07:48:47;;;;;;;40.67;23.27;;;2.10;99.90;;;;;;10441248;28;20314;-70
2022/12/19 07:53:48;;;;;;;41.27;23.93;;;2.10;99.90;;;;;;10432435;28;20645;-70
2022/12/19 07:58:48;;;;;;;37.60;23.03;;;2.20;99.90;;;;;;10430776;28;20232;-70
2022/12/19 08:03:50;;;;;;;36.60;22.77;;;2.20;99.90;;;;;;10437186;28;20227;-69
2022/12/19 08:08:50;;;;;;;36.70;22.27;;;2.30;99.90;;;;;;10441160;28;20786;-69
2022/12/19 08:13:51;;;;;;;36.43;22.97;;;2.20;99.90;;;;;;10430034;28;20231;-69
2022/12/19 08:18:52;;;;;;;35.90;21.57;;;2.30;99.90;;;;;;10438403;28;20707;-70
2022/12/19 08:23:52;;;;;;;37.10;22.73;;;2.30;99.90;;;;;;10436346;28;20760;-69
2022/12/19 08:28:55;;;;;;;33.17;21.20;;;2.40;99.90;;;;;;10444976;28;20215;-69
2022/12/19 08:33:56;;;;;;;36.87;21.37;;;2.40;99.90;;;;;;10436495;28;20229;-70
2022/12/19 08:38:57;;;;;;;38.97;23.90;;;2.40;99.90;;;;;;10427399;28;20236;-70
2022/12/19 08:43:57;;;;;;;37.63;22.00;;;2.60;99.90;;;;;;10436262;28;20224;-70
2022/12/19 08:48:58;;;;;;;39.43;23.23;;;2.70;99.90;;;;;;10435996;28;20242;-70
2022/12/19 08:53:58;;;;;;;33.90;21.30;;;2.70;99.90;;;;;;10436425;28;20679;-69
2022/12/19 08:58:59;;;;;;;38.80;22.37;;;2.70;99.90;;;;;;10428483;28;20711;-69
2022/12/19 09:04:00;;;;;;;40.67;23.43;;;2.70;99.90;;;;;;10435500;28;20227;-69
2022/12/19 09:09:02;;;;;;;40.57;22.93;;;2.70;99.90;;;;;;10433051;28;20212;-70
2022/12/19 09:14:03;;;;;;;38.73;23.43;;;2.70;99.90;;;;;;10427076;28;20233;-68
2022/12/19 09:19:04;;;;;;;38.30;23.33;;;2.70;99.90;;;;;;10434147;28;20232;-70
2022/12/19 09:24:05;;;;;;;37.13;23.20;;;2.60;99.90;;;;;;10425687;28;20233;-69
2022/12/19 09:29:06;;;;;;;43.07;23.90;;;2.70;99.90;;;;;;10435019;28;20235;-70
2022/12/19 09:34:06;;;;;;;42.83;24.57;;;2.70;99.90;;;;;;10426774;28;20693;-69
2022/12/19 09:39:09;;;;;;;39.07;23.83;;;2.60;99.90;;;;;;10432619;28;20314;-68
2022/12/19 09:44:15;;;;;;;44.93;25.27;;;2.50;99.90;;;;;;10435086;28;20445;-69
2022/12/19 09:49:23;;;;;;;43.43;24.43;;;2.50;99.90;;;;;;10431494;28;20236;-68
2022/12/19 09:54:34;;;;;;;39.00;23.37;;;2.50;99.90;;;;;;10428774;28;20231;-69
2022/12/19 09:59:41;;;;;;;40.33;23.53;;;2.60;99.90;;;;;;10428225;28;20323;-69
2022/12/19 10:04:51;;;;;;;37.33;23.90;;;2.80;99.90;;;;;;10429327;28;20226;-68
2022/12/19 10:09:56;;;;;;;38.50;24.57;;;3.00;99.90;;;;;;10426478;28;20224;-69
2022/12/19 10:15:07;;;;;;;40.93;24.30;;;3.10;99.90;;;;;;10440670;28;20227;-69
2022/12/19 10:20:16;;;;;;;41.23;23.90;;;3.10;99.90;;;;;;10421646;28;20215;-69
2022/12/19 10:25:33;;;;;;;45.50;26.93;;;3.00;99.90;;;;;;10425928;28;20189;-69
2022/12/19 10:30:43;;;;;;;45.07;25.07;;;2.90;99.90;;;;;;10428006;28;20227;-69
2022/12/19 10:35:49;;;;;;;41.30;24.57;;;3.00;99.90;;;;;;10431925;28;20230;-69
2022/12/19 10:41:19;;;;;;;43.07;25.90;;;2.90;99.90;;;;;;10436770;28;20228;-70
2022/12/19 10:46:34;;;;;;;41.53;24.80;;;2.80;99.90;;;;;;10431282;28;20228;-69
2022/12/19 10:51:35;;;;;;;40.90;24.93;;;2.90;99.90;;;;;;10431539;28;20227;-68
2022/12/19 10:56:35;;;;;;;45.53;26.40;;;3.10;99.90;;;;;;10425255;28;20375;-69
2022/12/19 11:01:39;;;;;;;38.97;23.93;;;3.10;99.90;;;;;;10424451;28;20220;-69
2022/12/19 11:06:47;;;;;;;43.73;25.13;;;3.10;99.90;;;;;;10432838;28;20597;-69
2022/12/19 11:12:11;;;;;;;43.07;26.53;;;3.00;99.90;;;;;;10428854;28;20217;-70
2022/12/19 11:17:31;;;;;;;44.97;25.93;;;3.10;99.90;;;;;;10417145;28;20232;-70
2022/12/19 11:22:36;;;;;;;40.27;25.27;;;3.00;99.90;;;;;;10411892;28;20799;-68
2022/12/19 11:27:40;;;;;;;44.20;25.20;;;3.10;99.90;;;;;;10427574;28;20320;-68
2022/12/19 11:32:46;;;;;;;41.07;24.93;;;3.10;99.90;;;;;;10424555;28;20271;-67
2022/12/19 11:37:54;;;;;;;41.63;25.13;;;3.20;99.90;;;;;;10428936;28;20255;-69
2022/12/19 11:43:04;;;;;;;39.73;24.33;;;3.30;99.90;;;;;;10423741;28;20228;-69
2022/12/19 11:48:20;;;;;;;39.73;24.00;;;3.40;99.90;;;;;;10430499;28;20230;-68
2022/12/19 11:53:31;;;;;;;41.57;24.70;;;3.50;99.90;;;;;;10423408;28;20307;-69
2022/12/19 11:58:31;;;;;;;43.63;27.37;;;3.60;99.90;;;;;;10426627;28;20229;-69
2022/12/19 12:03:58;;;;;;;44.43;25.70;;;3.60;99.90;;;;;;10424501;28;20223;-69
2022/12/19 12:09:14;;;;;;;38.83;24.43;;;3.60;99.90;;;;;;10434396;28;20294;-69
2022/12/19 12:14:28;;;;;;;42.23;25.67;;;3.40;99.90;;;;;;10433957;28;20274;-69
2022/12/19 12:19:44;;;;;;;42.07;25.30;;;3.40;99.90;;;;;;10433969;28;20245;-70
2022/12/19 12:24:59;;;;;;;44.70;24.60;;;3.30;99.90;;;;;;10434589;28;20263;-69
2022/12/19 12:30:02;;;;;;;41.93;25.90;;;3.40;99.90;;;;;;10437764;28;20676;-69
2022/12/19 12:35:26;;;;;;;44.67;26.47;;;3.40;99.90;;;;;;10441571;28;20689;-69
2022/12/19 12:40:48;;;;;;;44.93;27.33;;;3.40;99.90;;;;;;10431977;28;20692;-69
2022/12/19 12:45:49;;;;;;;40.50;24.70;;;3.40;99.90;;;;;;10435527;28;20294;-69
2022/12/19 12:50:51;;;;;;;41.73;25.10;;;3.60;99.90;;;;;;10436663;28;20235;-69
2022/12/19 12:55:55;;;;;;;38.33;24.93;;;3.80;99.90;;;;;;10429909;28;20232;-69
2022/12/19 13:01:18;;;;;;;39.83;25.10;;;4.00;99.90;;;;;;10436889;28;20299;-70
2022/12/19 13:06:30;;;;;;;39.60;24.53;;;4.30;99.90;;;;;;10435766;28;20215;-69
2022/12/19 13:16:55;;;;;;;37.17;24.70;;;4.60;99.90;;;;;;10435833;28;20236;-69
2022/12/19 13:22:15;;;;;;;40.07;24.80;;;4.50;99.90;;;;;;10432807;28;20221;-71
2022/12/19 13:27:18;;;;;;;39.63;24.73;;;4.50;99.90;;;;;;10428352;28;20294;-68
2022/12/19 13:32:20;;;;;;;39.87;25.87;;;4.50;99.90;;;;;;10432677;28;20224;-68
2022/12/19 13:37:42;;;;;;;42.20;26.70;;;4.50;99.90;;;;;;10426282;28;20228;-69
2022/12/19 13:48:51;;;;;;;40.23;25.47;;;4.20;99.90;;;;;;10427502;28;20725;-69
2022/12/19 13:53:53;;;;;;;40.23;25.50;;;4.10;99.90;;;;;;10426288;28;20300;-68
2022/12/19 13:59:01;;;;;;;42.30;26.07;;;4.10;99.90;;;;;;10431974;28;20229;-70
2022/12/19 14:04:27;;;;;;;41.20;25.77;;;4.00;99.90;;;;;;10423758;28;20739;-71
2022/12/19 14:09:38;;;;;;;42.67;26.60;;;3.90;99.90;;;;;;10428178;28;20338;-70
2022/12/19 14:20:31;;;;;;;39.37;25.63;;;3.80;99.90;;;;;;10425359;28;20213;-69
2022/12/19 14:25:49;;;;;;;47.10;26.57;;;3.70;99.90;;;;;;10428940;28;20224;-70
2022/12/19 14:30:54;;;;;;;42.73;26.33;;;3.60;99.90;;;;;;10432534;28;20216;-69
2022/12/19 14:35:55;;;;;;;38.30;25.10;;;3.70;99.90;;;;;;10430090;28;20223;-69
2022/12/19 14:40:56;;;;;;;43.80;27.53;;;3.70;99.90;;;;;;10437913;28;20314;-69
2022/12/19 14:46:10;;;;;;;43.33;26.10;;;3.80;99.90;;;;;;10424620;28;20230;-68
2022/12/19 14:51:13;;;;;;;41.93;26.07;;;3.70;99.90;;;;;;10423251;28;20217;-69
2022/12/19 14:56:18;;;;;;;36.90;23.40;;;3.60;99.90;;;;;;10423102;28;20239;-68
2022/12/19 15:01:26;;;;;;;42.73;26.43;;;3.50;99.90;;;;;;10426464;28;20224;-69
2022/12/19 15:06:29;;;;;;;43.70;28.20;;;3.40;99.90;;;;;;10430580;28;20612;-69
2022/12/19 15:17:11;;;;;;;39.80;25.87;;;3.30;99.90;;;;;;10422984;28;20271;-68
2022/12/19 15:22:11;;;;;;;48.23;30.00;;;3.20;99.90;;;;;;10422732;28;20216;-69
2022/12/19 15:27:15;;;;;;;51.90;29.93;;;3.10;99.90;;;;;;10423044;28;20602;-70
2022/12/19 15:32:16;;;;;;;43.53;26.27;;;3.10;99.90;;;;;;10423035;28;20228;-69
2022/12/19 15:37:17;;;;;;;46.23;30.13;;;3.00;99.90;;;;;;10427985;28;20870;-69
2022/12/19 15:42:24;;;;;;;45.27;26.93;;;2.90;99.90;;;;;;10434834;28;20306;-70
2022/12/19 15:47:34;;;;;;;42.33;26.50;;;2.90;99.90;;;;;;10432928;28;20235;-69
2022/12/19 15:52:34;;;;;;;43.40;25.53;;;2.80;99.90;;;;;;10432570;28;20262;-70
2022/12/19 15:57:41;;;;;;;40.37;25.50;;;2.70;99.90;;;;;;10433892;28;20228;-69
2022/12/19 16:02:41;;;;;;;46.93;25.87;;;2.70;99.90;;;;;;10431416;28;20649;-70
2022/12/19 16:07:43;;;;;;;49.73;28.63;;;2.70;99.90;;;;;;10434350;28;20221;-69
2022/12/19 16:12:59;;;;;;;42.23;25.80;;;2.70;99.90;;;;;;10430451;28;20235;-70
2022/12/19 16:18:02;;;;;;;41.37;26.13;;;2.60;99.90;;;;;;10444791;28;20257;-69
2022/12/19 16:23:03;;;;;;;43.63;26.70;;;2.60;99.90;;;;;;10433888;28;20653;-69
2022/12/19 16:28:05;;;;;;;44.67;27.60;;;2.60;99.90;;;;;;10425051;28;20220;-70
2022/12/19 16:33:33;;;;;;;45.40;26.97;;;2.50;99.90;;;;;;10426835;28;20255;-71
2022/12/19 16:38:34;;;;;;;51.70;27.50;;;2.60;99.90;;;;;;10431530;28;20233;-69
2022/12/19 16:43:39;;;;;;;44.80;27.30;;;2.50;99.90;;;;;;10435514;28;20230;-69
2022/12/19 16:48:42;;;;;;;54.67;31.53;;;2.50;99.90;;;;;;10429755;28;20229;-68
2022/12/19 16:53:43;;;;;;;51.63;31.40;;;2.60;99.90;;;;;;10432377;28;20247;-71
2022/12/19 16:58:43;;;;;;;46.37;28.87;;;2.60;99.90;;;;;;10429461;28;20259;-68
2022/12/19 17:03:44;;;;;;;45.83;28.20;;;2.60;99.90;;;;;;10435316;28;20232;-69
2022/12/19 17:08:45;;;;;;;44.63;27.00;;;2.60;99.90;;;;;;10432712;28;20224;-69
2022/12/19 17:13:51;;;;;;;41.27;25.43;;;2.60;99.90;;;;;;10429695;28;20248;-70
2022/12/19 17:18:52;;;;;;;39.27;25.20;;;2.60;99.90;;;;;;10433345;28;20664;-69
2022/12/19 17:23:53;;;;;;;45.67;26.37;;;2.60;99.90;;;;;;10427664;28;20239;-70
2022/12/19 17:28:54;;;;;;;44.30;28.57;;;2.60;99.90;;;;;;10432588;28;20304;-69
2022/12/19 17:33:56;;;;;;;41.53;26.20;;;2.60;99.90;;;;;;10424740;28;20718;-69
2022/12/19 17:38:57;;;;;;;54.17;32.57;;;2.60;99.90;;;;;;10431728;28;20231;-69
2022/12/19 17:43:58;;;;;;;48.93;30.83;;;2.70;99.90;;;;;;10424878;28;20224;-70
2022/12/19 17:48:58;;;;;;;49.37;32.13;;;2.60;99.90;;;;;;10432423;28;20910;-70
2022/12/19 17:53:59;;;;;;;47.30;28.73;;;2.60;99.90;;;;;;10425641;28;20281;-69
2022/12/19 17:59:00;;;;;;;49.50;30.20;;;2.60;99.90;;;;;;10432276;28;20236;-69
2022/12/19 18:04:00;;;;;;;48.70;28.10;;;2.70;99.90;;;;;;10430668;28;20219;-70
2022/12/19 18:09:02;;;;;;;42.57;26.93;;;2.70;99.90;;;;;;10424827;28;20344;-69
2022/12/19 18:14:02;;;;;;;50.63;29.10;;;2.70;99.90;;;;;;10431505;28;20220;-70
2022/12/19 18:19:04;;;;;;;46.33;27.67;;;2.70;99.90;;;;;;10432814;28;20223;-69
2022/12/19 18:24:10;;;;;;;50.67;29.97;;;2.70;99.90;;;;;;10423787;28;20262;-70
2022/12/19 18:29:11;;;;;;;41.63;27.20;;;2.80;99.90;;;;;;10424006;28;20314;-70
2022/12/19 18:34:30;;;;;;;42.50;26.07;;;2.70;99.90;;;;;;10431620;28;20272;-70
2022/12/19 18:39:32;;;;;;;39.40;25.40;;;2.80;99.90;;;;;;10426428;28;20347;-70
2022/12/19 18:44:32;;;;;;;43.93;26.13;;;2.80;99.90;;;;;;10431206;28;20230;-69
2022/12/19 18:49:36;;;;;;;44.90;27.70;;;2.90;99.90;;;;;;10423386;28;20232;-69
2022/12/19 18:54:36;;;;;;;44.23;26.83;;;2.90;99.90;;;;;;10431151;28;20223;-69
2022/12/19 18:59:37;;;;;;;47.37;28.37;;;2.80;99.90;;;;;;10427256;28;20228;-69
2022/12/19 19:04:38;;;;;;;41.73;26.90;;;2.80;99.90;;;;;;10431436;28;20220;-69
2022/12/19 19:09:38;;;;;;;45.43;28.87;;;2.80;99.90;;;;;;10435506;28;20226;-70
2022/12/19 19:14:40;;;;;;;41.83;26.47;;;2.80;99.90;;;;;;10429345;28;20229;-70
2022/12/19 19:19:41;;;;;;;45.80;27.87;;;2.70;99.90;;;;;;10434960;28;20860;-69
2022/12/19 19:24:44;;;;;;;39.00;26.00;;;2.70;99.90;;;;;;10434391;28;20224;-69
2022/12/19 19:29:45;;;;;;;48.00;29.33;;;2.80;99.90;;;;;;10436107;28;20699;-69
2022/12/19 19:34:45;;;;;;;44.67;28.93;;;2.80;99.90;;;;;;10433439;28;20289;-69
2022/12/19 19:39:46;;;;;;;46.70;29.30;;;2.70;99.90;;;;;;10437195;28;20793;-69
2022/12/19 19:44:47;;;;;;;48.67;28.63;;;2.80;99.90;;;;;;10433762;28;20709;-69
2022/12/19 19:49:48;;;;;;;47.80;29.10;;;2.80;99.90;;;;;;10427298;28;20322;-69
2022/12/19 19:54:49;;;;;;;50.33;31.77;;;2.80;99.90;;;;;;10438950;28;20497;-70
2022/12/19 19:59:49;;;;;;;44.23;27.97;;;2.70;99.90;;;;;;10432534;28;20239;-70
2022/12/19 20:04:50;;;;;;;44.37;29.13;;;2.80;99.90;;;;;;10435899;28;20243;-68
2022/12/19 20:09:50;;;;;;;48.90;29.60;;;2.80;99.90;;;;;;10431595;28;20233;-69
2022/12/19 20:14:54;;;;;;;46.50;29.00;;;2.80;99.90;;;;;;10440035;28;20342;-69
2022/12/19 20:19:54;;;;;;;50.40;30.13;;;2.80;99.90;;;;;;10435259;28;20263;-69
2022/12/19 20:24:56;;;;;;;46.90;29.70;;;2.70;99.90;;;;;;10429420;28;20220;-70
2022/12/19 20:29:56;;;;;;;41.03;27.30;;;2.80;99.90;;;;;;10435072;28;20209;-71
2022/12/19 20:34:57;;;;;;;44.70;26.53;;;2.80;99.90;;;;;;10428423;28;20640;-69
2022/12/19 20:39:58;;;;;;;44.20;28.07;;;2.90;99.90;;;;;;10435659;28;20259;-69
2022/12/19 20:44:58;;;;;;;52.70;30.87;;;3.00;99.90;;;;;;10434902;28;20238;-69
2022/12/19 20:49:59;;;;;;;45.63;28.50;;;3.00;99.90;;;;;;10434675;28;20254;-69
2022/12/19 20:55:03;;;;;;;43.53;26.60;;;3.10;99.90;;;;;;10435991;28;20215;-70
2022/12/19 21:00:09;;;;;;;46.17;27.83;;;3.10;99.90;;;;;;10427797;28;20231;-69
2022/12/19 21:05:09;;;;;;;43.40;28.20;;;3.00;99.90;;;;;;10434321;28;20715;-69
2022/12/19 21:10:10;;;;;;;43.87;28.10;;;2.90;99.90;;;;;;10427214;28;20196;-69
2022/12/19 21:15:10;;;;;;;41.27;27.23;;;2.90;99.90;;;;;;10434996;28;20703;-70
2022/12/19 21:20:12;;;;;;;41.13;26.03;;;2.90;99.90;;;;;;10427812;28;20224;-70
2022/12/19 21:25:13;;;;;;;44.83;27.77;;;3.00;99.90;;;;;;10434072;28;20263;-69
2022/12/19 21:30:13;;;;;;;42.30;25.93;;;3.10;99.90;;;;;;10427644;28;20671;-70
2022/12/19 21:35:14;;;;;;;45.33;27.77;;;3.20;99.90;;;;;;10433098;28;20651;-69
2022/12/19 21:40:15;;;;;;;41.67;26.23;;;3.20;99.90;;;;;;10432728;28;20883;-69
2022/12/19 21:45:16;;;;;;;45.93;26.90;;;3.30;99.90;;;;;;10426752;28;20212;-68
2022/12/19 21:50:20;;;;;;;41.40;26.17;;;3.30;99.90;;;;;;10433356;28;20202;-69
2022/12/19 21:55:20;;;;;;;43.37;27.43;;;3.30;99.90;;;;;;10431220;28;20275;-69
2022/12/19 22:00:21;;;;;;;46.33;27.40;;;3.30;99.90;;;;;;10433313;28;20196;-69
2022/12/19 22:05:21;;;;;;;42.83;26.20;;;3.20;99.90;;;;;;10427029;28;20219;-70
2022/12/19 22:10:22;;;;;;;39.80;24.77;;;3.20;99.90;;;;;;10430787;28;20192;-69
2022/12/19 22:15:23;;;;;;;39.67;24.53;;;3.20;99.90;;;;;;10435020;28;20217;-69
2022/12/19 22:20:23;;;;;;;42.03;26.30;;;3.30;99.90;;;;;;10424725;28;20285;-68
2022/12/19 22:25:24;;;;;;;42.30;25.37;;;3.20;99.90;;;;;;10435163;28;20936;-68
2022/12/19 22:30:24;;;;;;;39.90;25.03;;;3.00;99.90;;;;;;10431109;28;20228;-69
2022/12/19 22:35:25;;;;;;;37.90;24.77;;;3.00;99.90;;;;;;10428510;28;20225;-69
2022/12/19 22:40:25;;;;;;;40.93;24.80;;;3.00;99.90;;;;;;10436067;28;20637;-69
2022/12/19 22:45:29;;;;;;;35.03;22.77;;;3.00;99.90;;;;;;10432790;28;20676;-69
2022/12/19 22:50:29;;;;;;;35.97;22.20;;;3.00;99.90;;;;;;10438108;28;20311;-68
2022/12/19 22:55:30;;;;;;;39.50;24.23;;;3.10;99.90;;;;;;10431924;28;20303;-69
2022/12/19 23:00:30;;;;;;;39.10;24.07;;;3.10;99.90;;;;;;10431976;28;20228;-69
2022/12/19 23:05:34;;;;;;;33.13;22.33;;;3.20;99.90;;;;;;10432372;28;20243;-69
2022/12/19 23:10:35;;;;;;;37.97;23.63;;;3.30;99.90;;;;;;10428263;28;20216;-70
2022/12/19 23:15:35;;;;;;;34.63;22.07;;;3.40;99.90;;;;;;10426375;28;20697;-69
2022/12/19 23:20:36;;;;;;;39.27;23.77;;;3.40;99.90;;;;;;10427731;28;20688;-69
2022/12/19 23:25:38;;;;;;;34.53;22.63;;;3.50;99.90;;;;;;10431654;28;20228;-69
2022/12/19 23:30:39;;;;;;;32.10;21.40;;;3.50;99.90;;;;;;10428040;28;20658;-69
2022/12/19 23:35:41;;;;;;;34.43;23.03;;;3.60;99.90;;;;;;10426550;28;20232;-68
2022/12/19 23:40:45;;;;;;;33.40;23.13;;;3.60;99.90;;;;;;10428542;28;20243;-68
2022/12/19 23:45:45;;;;;;;35.63;23.07;;;3.70;99.90;;;;;;10425787;28;20601;-68
2022/12/19 23:50:46;;;;;;;36.93;22.67;;;3.80;99.90;;;;;;10436941;28;20226;-69
2022/12/19 23:55:48;;;;;;;32.30;22.40;;;3.80;99.90;;;;;;10421649;28;20601;-70
